sensor_id;sensor_type;location;lat;lon;timestamp;temperature;humidity
49829;DHT22;35723;51.194;5.112;2023-01-04T00:01:21;10.70;99.90
49829;DHT22;35723;51.194;5.112;2023-01-04T00:03:47;10.60;99.90
49829;DHT22;35723;51.194;5.112;2023-01-04T00:06:14;10.70;99.90
49829;DHT22;35723;51.194;5.112;2023-01-04T00:08:39;10.50;99.90
49829;DHT22;35723;51.194;5.112;2023-01-04T00:11:11;10.50;99.90
49829;DHT22;35723;51.194;5.112;2023-01-04T00:13:37;10.70;99.90
49829;DHT22;35723;51.194;5.112;2023-01-04T00:16:07;10.50;99.90
49829;DHT22;35723;51.194;5.112;2023-01-04T00:18:34;10.50;99.90
49829;DHT22;35723;51.194;5.112;2023-01-04T00:21:30;10.30;99.90
49829;DHT22;35723;51.194;5.112;2023-01-04T00:24:00;10.30;99.90
49829;DHT22;35723;51.194;5.112;2023-01-04T00:26:30;10.40;99.90
49829;DHT22;35723;51.194;5.112;2023-01-04T00:28:58;10.50;99.90
49829;DHT22;35723;51.194;5.112;2023-01-04T00:31:25;10.50;99.90
49829;DHT22;35723;51.194;5.112;2023-01-04T00:33:55;10.50;99.90
49829;DHT22;35723;51.194;5.112;2023-01-04T00:36:21;10.50;99.90
49829;DHT22;35723;51.194;5.112;2023-01-04T00:38:47;10.60;99.90
49829;DHT22;35723;51.194;5.112;2023-01-04T00:41:35;10.60;99.90
49829;DHT22;35723;51.194;5.112;2023-01-04T00:44:01;10.60;99.90
49829;DHT22;35723;51.194;5.112;2023-01-04T00:46:29;10.60;99.90
49829;DHT22;35723;51.194;5.112;2023-01-04T00:48:55;10.60;99.90
49829;DHT22;35723;51.194;5.112;2023-01-04T00:51:21;10.60;99.90
49829;DHT22;35723;51.194;5.112;2023-01-04T00:53:46;10.70;99.90
49829;DHT22;35723;51.194;5.112;2023-01-04T00:56:12;10.60;99.90
49829;DHT22;35723;51.194;5.112;2023-01-04T00:58:38;10.50;99.90
49829;DHT22;35723;51.194;5.112;2023-01-04T01:01:05;10.50;99.90
49829;DHT22;35723;51.194;5.112;2023-01-04T01:03:30;10.40;99.90
49829;DHT22;35723;51.194;5.112;2023-01-04T01:06:00;10.50;99.90
49829;DHT22;35723;51.194;5.112;2023-01-04T01:08:26;10.50;99.90
49829;DHT22;35723;51.194;5.112;2023-01-04T01:10:53;10.60;99.90
49829;DHT22;35723;51.194;5.112;2023-01-04T01:13:20;10.70;99.90
49829;DHT22;35723;51.194;5.112;2023-01-04T01:15:45;10.70;99.90
49829;DHT22;35723;51.194;5.112;2023-01-04T01:18:11;10.70;99.90
49829;DHT22;35723;51.194;5.112;2023-01-04T01:20:44;10.50;99.90
49829;DHT22;35723;51.194;5.112;2023-01-04T01:23:12;10.50;99.90
49829;DHT22;35723;51.194;5.112;2023-01-04T01:25:38;10.60;99.90
49829;DHT22;35723;51.194;5.112;2023-01-04T01:28:04;10.50;99.90
49829;DHT22;35723;51.194;5.112;2023-01-04T01:30:30;10.50;99.90
49829;DHT22;35723;51.194;5.112;2023-01-04T01:32:56;10.70;99.90
49829;DHT22;35723;51.194;5.112;2023-01-04T01:35:21;10.70;99.90
49829;DHT22;35723;51.194;5.112;2023-01-04T01:37:47;10.70;99.90
49829;DHT22;35723;51.194;5.112;2023-01-04T01:40:13;10.70;99.90
49829;DHT22;35723;51.194;5.112;2023-01-04T01:42:38;10.50;99.90
49829;DHT22;35723;51.194;5.112;2023-01-04T01:45:08;10.50;99.90
49829;DHT22;35723;51.194;5.112;2023-01-04T01:47:45;10.60;99.90
49829;DHT22;35723;51.194;5.112;2023-01-04T01:50:25;10.50;99.90
49829;DHT22;35723;51.194;5.112;2023-01-04T01:52:53;10.50;99.90
49829;DHT22;35723;51.194;5.112;2023-01-04T01:55:20;10.60;99.90
49829;DHT22;35723;51.194;5.112;2023-01-04T01:57:48;10.70;99.90
49829;DHT22;35723;51.194;5.112;2023-01-04T02:00:14;10.80;99.90
49829;DHT22;35723;51.194;5.112;2023-01-04T02:05:19;11.00;99.90
49829;DHT22;35723;51.194;5.112;2023-01-04T02:07:45;10.90;99.90
49829;DHT22;35723;51.194;5.112;2023-01-04T02:10:13;10.80;99.90
49829;DHT22;35723;51.194;5.112;2023-01-04T02:12:39;10.70;99.90
49829;DHT22;35723;51.194;5.112;2023-01-04T02:15:05;10.60;99.90
49829;DHT22;35723;51.194;5.112;2023-01-04T02:17:54;10.80;99.90
49829;DHT22;35723;51.194;5.112;2023-01-04T02:36:56;10.70;99.90
49829;DHT22;35723;51.194;5.112;2023-01-04T02:39:49;10.90;99.90
49829;DHT22;35723;51.194;5.112;2023-01-04T02:42:35;11.00;99.90
49829;DHT22;35723;51.194;5.112;2023-01-04T02:45:28;10.90;99.90
49829;DHT22;35723;51.194;5.112;2023-01-04T02:48:03;11.00;99.90
49829;DHT22;35723;51.194;5.112;2023-01-04T02:50:58;11.00;99.90
49829;DHT22;35723;51.194;5.112;2023-01-04T02:53:33;11.00;99.90
49829;DHT22;35723;51.194;5.112;2023-01-04T03:12:58;10.90;99.90
49829;DHT22;35723;51.194;5.112;2023-01-04T03:15:32;11.00;99.90
49829;DHT22;35723;51.194;5.112;2023-01-04T03:18:07;11.00;99.90
49829;DHT22;35723;51.194;5.112;2023-01-04T03:20:34;10.90;99.90
49829;DHT22;35723;51.194;5.112;2023-01-04T03:23:08;10.90;99.90
49829;DHT22;35723;51.194;5.112;2023-01-04T03:25:58;10.90;99.90
49829;DHT22;35723;51.194;5.112;2023-01-04T03:28:43;10.90;99.90
49829;DHT22;35723;51.194;5.112;2023-01-04T03:31:39;10.90;99.90
49829;DHT22;35723;51.194;5.112;2023-01-04T03:34:25;11.00;99.90
49829;DHT22;35723;51.194;5.112;2023-01-04T03:37:30;10.90;99.90
49829;DHT22;35723;51.194;5.112;2023-01-04T03:46:07;11.10;99.90
49829;DHT22;35723;51.194;5.112;2023-01-04T03:48:58;11.10;99.90
49829;DHT22;35723;51.194;5.112;2023-01-04T03:51:28;10.90;99.90
49829;DHT22;35723;51.194;5.112;2023-01-04T03:56:39;11.00;99.90
49829;DHT22;35723;51.194;5.112;2023-01-04T03:59:06;10.90;99.90
49829;DHT22;35723;51.194;5.112;2023-01-04T04:01:32;11.00;99.90
49829;DHT22;35723;51.194;5.112;2023-01-04T04:03:58;11.00;99.90
49829;DHT22;35723;51.194;5.112;2023-01-04T04:06:42;11.00;99.90
49829;DHT22;35723;51.194;5.112;2023-01-04T04:09:26;10.90;99.90
49829;DHT22;35723;51.194;5.112;2023-01-04T04:11:52;10.90;99.90
49829;DHT22;35723;51.194;5.112;2023-01-04T04:14:18;11.00;99.90
49829;DHT22;35723;51.194;5.112;2023-01-04T04:16:43;11.00;99.90
49829;DHT22;35723;51.194;5.112;2023-01-04T04:19:09;11.10;99.90
49829;DHT22;35723;51.194;5.112;2023-01-04T04:21:35;11.10;99.90
49829;DHT22;35723;51.194;5.112;2023-01-04T04:24:01;11.10;99.90
49829;DHT22;35723;51.194;5.112;2023-01-04T04:26:27;11.20;99.90
49829;DHT22;35723;51.194;5.112;2023-01-04T04:28:52;11.30;99.90
49829;DHT22;35723;51.194;5.112;2023-01-04T04:31:18;11.30;99.90
49829;DHT22;35723;51.194;5.112;2023-01-04T04:33:43;11.30;99.90
49829;DHT22;35723;51.194;5.112;2023-01-04T04:36:09;11.30;99.90
49829;DHT22;35723;51.194;5.112;2023-01-04T04:38:36;11.40;99.90
49829;DHT22;35723;51.194;5.112;2023-01-04T04:41:09;11.40;99.90
49829;DHT22;35723;51.194;5.112;2023-01-04T04:43:54;11.30;99.90
49829;DHT22;35723;51.194;5.112;2023-01-04T04:46:20;11.20;99.90
49829;DHT22;35723;51.194;5.112;2023-01-04T04:48:46;11.20;99.90
49829;DHT22;35723;51.194;5.112;2023-01-04T04:51:12;11.30;99.90
49829;DHT22;35723;51.194;5.112;2023-01-04T04:53:37;11.50;99.90
49829;DHT22;35723;51.194;5.112;2023-01-04T04:56:03;11.60;99.90
49829;DHT22;35723;51.194;5.112;2023-01-04T04:58:29;11.50;99.90
49829;DHT22;35723;51.194;5.112;2023-01-04T05:00:55;11.50;99.90
49829;DHT22;35723;51.194;5.112;2023-01-04T05:03:20;11.60;99.90
49829;DHT22;35723;51.194;5.112;2023-01-04T05:05:46;11.70;99.90
49829;DHT22;35723;51.194;5.112;2023-01-04T05:08:12;11.60;99.90
49829;DHT22;35723;51.194;5.112;2023-01-04T05:10:38;11.70;99.90
49829;DHT22;35723;51.194;5.112;2023-01-04T05:13:04;11.70;99.90
49829;DHT22;35723;51.194;5.112;2023-01-04T05:18:23;11.80;99.90
49829;DHT22;35723;51.194;5.112;2023-01-04T05:20:49;11.80;99.90
49829;DHT22;35723;51.194;5.112;2023-01-04T05:23:16;11.80;99.90
49829;DHT22;35723;51.194;5.112;2023-01-04T05:25:42;11.70;99.90
49829;DHT22;35723;51.194;5.112;2023-01-04T05:28:09;11.70;99.90
49829;DHT22;35723;51.194;5.112;2023-01-04T05:30:35;11.60;99.90
49829;DHT22;35723;51.194;5.112;2023-01-04T05:33:18;11.60;99.90
49829;DHT22;35723;51.194;5.112;2023-01-04T05:35:44;11.70;99.90
49829;DHT22;35723;51.194;5.112;2023-01-04T05:38:10;11.80;99.90
49829;DHT22;35723;51.194;5.112;2023-01-04T05:40:35;11.90;99.90
49829;DHT22;35723;51.194;5.112;2023-01-04T05:43:01;12.00;99.90
49829;DHT22;35723;51.194;5.112;2023-01-04T05:45:26;11.90;99.90
49829;DHT22;35723;51.194;5.112;2023-01-04T05:47:53;12.00;99.90
49829;DHT22;35723;51.194;5.112;2023-01-04T05:50:20;12.00;99.90
49829;DHT22;35723;51.194;5.112;2023-01-04T05:52:46;12.00;99.90
49829;DHT22;35723;51.194;5.112;2023-01-04T05:55:12;12.10;99.90
49829;DHT22;35723;51.194;5.112;2023-01-04T05:57:38;12.10;99.90
49829;DHT22;35723;51.194;5.112;2023-01-04T06:00:05;12.10;99.90
49829;DHT22;35723;51.194;5.112;2023-01-04T06:02:31;12.00;99.90
49829;DHT22;35723;51.194;5.112;2023-01-04T06:04:57;12.00;99.90
49829;DHT22;35723;51.194;5.112;2023-01-04T06:07:24;11.90;99.90
49829;DHT22;35723;51.194;5.112;2023-01-04T06:09:50;12.00;99.90
49829;DHT22;35723;51.194;5.112;2023-01-04T06:12:16;12.00;99.90
49829;DHT22;35723;51.194;5.112;2023-01-04T06:14:42;12.00;99.90
49829;DHT22;35723;51.194;5.112;2023-01-04T06:17:07;12.00;99.90
49829;DHT22;35723;51.194;5.112;2023-01-04T06:19:33;12.00;99.90
49829;DHT22;35723;51.194;5.112;2023-01-04T06:21:59;12.10;99.90
49829;DHT22;35723;51.194;5.112;2023-01-04T06:24:25;11.90;99.90
49829;DHT22;35723;51.194;5.112;2023-01-04T06:26:50;11.90;99.90
49829;DHT22;35723;51.194;5.112;2023-01-04T06:29:16;11.90;99.90
49829;DHT22;35723;51.194;5.112;2023-01-04T06:31:42;12.00;99.90
49829;DHT22;35723;51.194;5.112;2023-01-04T06:34:10;12.10;99.90
49829;DHT22;35723;51.194;5.112;2023-01-04T06:36:36;12.00;99.90
49829;DHT22;35723;51.194;5.112;2023-01-04T06:39:02;12.10;99.90
49829;DHT22;35723;51.194;5.112;2023-01-04T06:41:27;12.20;99.90
49829;DHT22;35723;51.194;5.112;2023-01-04T06:43:53;12.20;99.90
49829;DHT22;35723;51.194;5.112;2023-01-04T06:46:19;12.20;99.90
49829;DHT22;35723;51.194;5.112;2023-01-04T06:48:44;12.30;99.90
49829;DHT22;35723;51.194;5.112;2023-01-04T06:51:11;12.30;99.90
49829;DHT22;35723;51.194;5.112;2023-01-04T06:53:36;12.30;99.90
49829;DHT22;35723;51.194;5.112;2023-01-04T06:56:02;12.20;99.90
49829;DHT22;35723;51.194;5.112;2023-01-04T06:58:27;12.30;99.90
49829;DHT22;35723;51.194;5.112;2023-01-04T07:00:54;12.30;99.90
49829;DHT22;35723;51.194;5.112;2023-01-04T07:03:20;12.30;99.90
49829;DHT22;35723;51.194;5.112;2023-01-04T07:05:46;12.40;99.90
49829;DHT22;35723;51.194;5.112;2023-01-04T07:08:13;12.40;99.90
49829;DHT22;35723;51.194;5.112;2023-01-04T07:10:39;12.40;99.90
49829;DHT22;35723;51.194;5.112;2023-01-04T07:13:05;12.40;99.90
49829;DHT22;35723;51.194;5.112;2023-01-04T07:15:31;12.40;99.90
49829;DHT22;35723;51.194;5.112;2023-01-04T07:17:57;12.30;99.90
49829;DHT22;35723;51.194;5.112;2023-01-04T07:20:22;12.30;99.90
49829;DHT22;35723;51.194;5.112;2023-01-04T07:22:48;12.40;99.90
49829;DHT22;35723;51.194;5.112;2023-01-04T07:25:14;12.40;99.90
49829;DHT22;35723;51.194;5.112;2023-01-04T07:27:39;12.40;99.90
49829;DHT22;35723;51.194;5.112;2023-01-04T07:30:05;12.40;99.90
49829;DHT22;35723;51.194;5.112;2023-01-04T07:32:31;12.60;99.90
49829;DHT22;35723;51.194;5.112;2023-01-04T07:34:57;12.70;99.90
49829;DHT22;35723;51.194;5.112;2023-01-04T07:37:22;12.50;99.90
49829;DHT22;35723;51.194;5.112;2023-01-04T07:39:48;12.50;99.90
49829;DHT22;35723;51.194;5.112;2023-01-04T07:42:15;12.40;99.90
49829;DHT22;35723;51.194;5.112;2023-01-04T07:44:40;12.50;99.90
49829;DHT22;35723;51.194;5.112;2023-01-04T07:47:06;12.50;99.90
49829;DHT22;35723;51.194;5.112;2023-01-04T07:49:32;12.40;99.90
49829;DHT22;35723;51.194;5.112;2023-01-04T07:51:57;12.40;99.90
49829;DHT22;35723;51.194;5.112;2023-01-04T07:54:23;12.40;99.90
49829;DHT22;35723;51.194;5.112;2023-01-04T07:56:49;12.50;99.90
49829;DHT22;35723;51.194;5.112;2023-01-04T07:59:16;12.50;99.90
49829;DHT22;35723;51.194;5.112;2023-01-04T08:01:42;12.40;99.90
49829;DHT22;35723;51.194;5.112;2023-01-04T08:04:09;12.30;99.90
49829;DHT22;35723;51.194;5.112;2023-01-04T08:06:35;12.20;99.90
49829;DHT22;35723;51.194;5.112;2023-01-04T08:09:03;12.30;99.90
49829;DHT22;35723;51.194;5.112;2023-01-04T08:11:28;12.40;99.90
49829;DHT22;35723;51.194;5.112;2023-01-04T08:13:54;12.40;99.90
49829;DHT22;35723;51.194;5.112;2023-01-04T08:18:51;12.50;99.90
49829;DHT22;35723;51.194;5.112;2023-01-04T08:21:17;12.50;99.90
49829;DHT22;35723;51.194;5.112;2023-01-04T08:23:43;12.60;99.90
49829;DHT22;35723;51.194;5.112;2023-01-04T08:26:11;12.50;99.90
49829;DHT22;35723;51.194;5.112;2023-01-04T08:28:37;12.50;99.90
49829;DHT22;35723;51.194;5.112;2023-01-04T08:31:11;12.60;99.90
49829;DHT22;35723;51.194;5.112;2023-01-04T08:33:38;12.80;99.90
49829;DHT22;35723;51.194;5.112;2023-01-04T08:36:24;12.70;99.90
49829;DHT22;35723;51.194;5.112;2023-01-04T08:38:52;12.70;99.90
49829;DHT22;35723;51.194;5.112;2023-01-04T08:41:18;12.80;99.90
49829;DHT22;35723;51.194;5.112;2023-01-04T08:43:45;12.90;99.90
49829;DHT22;35723;51.194;5.112;2023-01-04T08:46:12;12.90;99.90
49829;DHT22;35723;51.194;5.112;2023-01-04T08:48:38;12.80;99.90
49829;DHT22;35723;51.194;5.112;2023-01-04T08:51:13;12.80;99.90
49829;DHT22;35723;51.194;5.112;2023-01-04T08:53:39;12.80;99.90
49829;DHT22;35723;51.194;5.112;2023-01-04T08:56:05;12.80;99.90
49829;DHT22;35723;51.194;5.112;2023-01-04T08:58:33;12.90;99.90
49829;DHT22;35723;51.194;5.112;2023-01-04T09:01:09;12.80;99.90
49829;DHT22;35723;51.194;5.112;2023-01-04T09:03:36;12.90;99.90
49829;DHT22;35723;51.194;5.112;2023-01-04T09:06:09;12.90;99.90
49829;DHT22;35723;51.194;5.112;2023-01-04T09:08:36;12.90;99.90
49829;DHT22;35723;51.194;5.112;2023-01-04T09:11:08;12.90;99.90
49829;DHT22;35723;51.194;5.112;2023-01-04T09:13:35;12.90;99.90
49829;DHT22;35723;51.194;5.112;2023-01-04T09:16:02;12.90;99.90
49829;DHT22;35723;51.194;5.112;2023-01-04T09:18:28;12.80;99.90
49829;DHT22;35723;51.194;5.112;2023-01-04T09:20:54;12.70;99.90
49829;DHT22;35723;51.194;5.112;2023-01-04T09:23:20;12.70;99.90
49829;DHT22;35723;51.194;5.112;2023-01-04T09:25:46;12.80;99.90
49829;DHT22;35723;51.194;5.112;2023-01-04T09:28:11;12.80;99.90
49829;DHT22;35723;51.194;5.112;2023-01-04T09:30:37;12.80;99.90
49829;DHT22;35723;51.194;5.112;2023-01-04T09:33:03;12.80;99.90
49829;DHT22;35723;51.194;5.112;2023-01-04T09:35:28;12.70;99.90
49829;DHT22;35723;51.194;5.112;2023-01-04T09:37:54;12.80;99.90
49829;DHT22;35723;51.194;5.112;2023-01-04T09:40:26;12.90;99.90
49829;DHT22;35723;51.194;5.112;2023-01-04T09:42:55;12.90;99.90
49829;DHT22;35723;51.194;5.112;2023-01-04T09:45:25;12.80;99.90
49829;DHT22;35723;51.194;5.112;2023-01-04T09:50:27;13.00;99.90
49829;DHT22;35723;51.194;5.112;2023-01-04T09:53:03;12.90;99.90
49829;DHT22;35723;51.194;5.112;2023-01-04T09:55:47;13.00;99.90
49829;DHT22;35723;51.194;5.112;2023-01-04T10:00:59;12.90;99.90
49829;DHT22;35723;51.194;5.112;2023-01-04T10:03:33;12.90;99.90
49829;DHT22;35723;51.194;5.112;2023-01-04T10:06:01;12.90;99.90
49829;DHT22;35723;51.194;5.112;2023-01-04T10:08:27;13.00;99.90
49829;DHT22;35723;51.194;5.112;2023-01-04T10:16:58;13.00;99.90
49829;DHT22;35723;51.194;5.112;2023-01-04T10:22:05;13.20;99.90
49829;DHT22;35723;51.194;5.112;2023-01-04T10:24:50;13.10;99.90
49829;DHT22;35723;51.194;5.112;2023-01-04T10:27:37;13.10;99.90
49829;DHT22;35723;51.194;5.112;2023-01-04T10:30:15;13.00;99.90
49829;DHT22;35723;51.194;5.112;2023-01-04T10:32:52;12.90;99.90
49829;DHT22;35723;51.194;5.112;2023-01-04T10:35:26;13.00;99.90
49829;DHT22;35723;51.194;5.112;2023-01-04T10:37:57;13.10;99.90
49829;DHT22;35723;51.194;5.112;2023-01-04T10:40:24;13.00;99.90
49829;DHT22;35723;51.194;5.112;2023-01-04T10:45:35;13.10;99.90
49829;DHT22;35723;51.194;5.112;2023-01-04T10:48:17;13.10;99.90
49829;DHT22;35723;51.194;5.112;2023-01-04T10:51:01;13.10;99.90
49829;DHT22;35723;51.194;5.112;2023-01-04T10:53:40;13.10;99.90
49829;DHT22;35723;51.194;5.112;2023-01-04T11:04:39;13.20;99.90
49829;DHT22;35723;51.194;5.112;2023-01-04T11:07:27;13.30;99.90
49829;DHT22;35723;51.194;5.112;2023-01-04T11:10:05;13.30;99.90
49829;DHT22;35723;51.194;5.112;2023-01-04T11:12:31;13.30;99.90
49829;DHT22;35723;51.194;5.112;2023-01-04T11:14:57;13.20;99.90
49829;DHT22;35723;51.194;5.112;2023-01-04T11:17:24;13.30;99.90
49829;DHT22;35723;51.194;5.112;2023-01-04T11:19:50;13.30;99.90
49829;DHT22;35723;51.194;5.112;2023-01-04T11:22:27;13.30;99.90
49829;DHT22;35723;51.194;5.112;2023-01-04T11:24:59;13.40;99.90
49829;DHT22;35723;51.194;5.112;2023-01-04T11:27:29;13.40;99.90
49829;DHT22;35723;51.194;5.112;2023-01-04T11:29:59;13.30;99.90
49829;DHT22;35723;51.194;5.112;2023-01-04T11:32:41;13.20;99.90
49829;DHT22;35723;51.194;5.112;2023-01-04T11:35:09;13.20;99.90
49829;DHT22;35723;51.194;5.112;2023-01-04T11:37:37;13.20;99.90
49829;DHT22;35723;51.194;5.112;2023-01-04T11:42:40;13.30;99.90
49829;DHT22;35723;51.194;5.112;2023-01-04T11:45:19;13.20;99.90
49829;DHT22;35723;51.194;5.112;2023-01-04T11:47:51;13.10;99.90
49829;DHT22;35723;51.194;5.112;2023-01-04T11:55:48;13.10;99.90
49829;DHT22;35723;51.194;5.112;2023-01-04T11:58:18;13.10;99.90
49829;DHT22;35723;51.194;5.112;2023-01-04T12:00:54;13.20;99.90
49829;DHT22;35723;51.194;5.112;2023-01-04T12:03:38;13.30;99.90
49829;DHT22;35723;51.194;5.112;2023-01-04T12:06:24;13.20;99.90
49829;DHT22;35723;51.194;5.112;2023-01-04T12:08:51;13.60;99.90
49829;DHT22;35723;51.194;5.112;2023-01-04T12:11:30;13.40;99.90
49829;DHT22;35723;51.194;5.112;2023-01-04T12:13:57;13.30;99.90
49829;DHT22;35723;51.194;5.112;2023-01-04T12:16:56;13.30;99.90
49829;DHT22;35723;51.194;5.112;2023-01-04T12:19:24;13.30;99.90
49829;DHT22;35723;51.194;5.112;2023-01-04T12:21:56;13.20;99.90
49829;DHT22;35723;51.194;5.112;2023-01-04T12:24:29;13.30;99.90
49829;DHT22;35723;51.194;5.112;2023-01-04T12:26:55;13.40;99.90
49829;DHT22;35723;51.194;5.112;2023-01-04T12:36:58;13.50;99.90
49829;DHT22;35723;51.194;5.112;2023-01-04T12:39:25;13.50;99.90
49829;DHT22;35723;51.194;5.112;2023-01-04T12:50:07;13.40;99.90
49829;DHT22;35723;51.194;5.112;2023-01-04T12:52:58;13.40;99.90
49829;DHT22;35723;51.194;5.112;2023-01-04T12:58:03;13.30;99.90
49829;DHT22;35723;51.194;5.112;2023-01-04T13:05:52;13.50;99.90
49829;DHT22;35723;51.194;5.112;2023-01-04T13:08:19;13.70;99.90
49829;DHT22;35723;51.194;5.112;2023-01-04T13:16:21;13.50;99.90
49829;DHT22;35723;51.194;5.112;2023-01-04T13:24:02;13.40;99.90
49829;DHT22;35723;51.194;5.112;2023-01-04T13:26:40;13.50;99.90
49829;DHT22;35723;51.194;5.112;2023-01-04T13:29:24;13.50;99.90
49829;DHT22;35723;51.194;5.112;2023-01-04T13:31:59;13.50;99.90
49829;DHT22;35723;51.194;5.112;2023-01-04T13:34:40;13.50;99.90
49829;DHT22;35723;51.194;5.112;2023-01-04T13:39:44;13.40;99.90
49829;DHT22;35723;51.194;5.112;2023-01-04T13:42:31;13.40;99.90
49829;DHT22;35723;51.194;5.112;2023-01-04T13:47:36;13.50;99.90
49829;DHT22;35723;51.194;5.112;2023-01-04T13:50:02;13.40;99.90
49829;DHT22;35723;51.194;5.112;2023-01-04T13:52:29;13.40;99.90
49829;DHT22;35723;51.194;5.112;2023-01-04T13:57:58;13.50;99.90
49829;DHT22;35723;51.194;5.112;2023-01-04T14:00:45;13.60;99.90
49829;DHT22;35723;51.194;5.112;2023-01-04T14:05:54;13.60;99.90
49829;DHT22;35723;51.194;5.112;2023-01-04T14:09:34;13.50;99.90
49829;DHT22;35723;51.194;5.112;2023-01-04T14:11:30;13.40;99.90
49829;DHT22;35723;51.194;5.112;2023-01-04T14:19:41;13.50;99.90
49829;DHT22;35723;51.194;5.112;2023-01-04T14:24:56;13.60;99.90
49829;DHT22;35723;51.194;5.112;2023-01-04T14:27:39;13.70;99.90
49829;DHT22;35723;51.194;5.112;2023-01-04T14:33:01;13.60;99.90
49829;DHT22;35723;51.194;5.112;2023-01-04T14:35:28;13.70;99.90
49829;DHT22;35723;51.194;5.112;2023-01-04T14:38:00;13.70;99.90
49829;DHT22;35723;51.194;5.112;2023-01-04T14:40:28;13.50;99.90
49829;DHT22;35723;51.194;5.112;2023-01-04T14:42:56;13.50;99.90
49829;DHT22;35723;51.194;5.112;2023-01-04T14:45:22;13.60;99.90
49829;DHT22;35723;51.194;5.112;2023-01-04T14:47:48;13.70;99.90
49829;DHT22;35723;51.194;5.112;2023-01-04T14:50:14;13.70;99.90
49829;DHT22;35723;51.194;5.112;2023-01-04T14:52:52;13.60;99.90
49829;DHT22;35723;51.194;5.112;2023-01-04T14:55:18;13.70;99.90
49829;DHT22;35723;51.194;5.112;2023-01-04T14:57:44;13.60;99.90
49829;DHT22;35723;51.194;5.112;2023-01-04T15:00:16;13.50;99.90
49829;DHT22;35723;51.194;5.112;2023-01-04T15:02:42;13.60;99.90
49829;DHT22;35723;51.194;5.112;2023-01-04T15:05:10;13.60;99.90
49829;DHT22;35723;51.194;5.112;2023-01-04T15:07:38;13.70;99.90
49829;DHT22;35723;51.194;5.112;2023-01-04T15:10:24;13.70;99.90
49829;DHT22;35723;51.194;5.112;2023-01-04T15:12:51;13.70;99.90
49829;DHT22;35723;51.194;5.112;2023-01-04T15:15:17;13.60;99.90
49829;DHT22;35723;51.194;5.112;2023-01-04T15:17:43;13.60;99.90
49829;DHT22;35723;51.194;5.112;2023-01-04T15:20:10;13.60;99.90
49829;DHT22;35723;51.194;5.112;2023-01-04T15:22:37;13.50;99.90
49829;DHT22;35723;51.194;5.112;2023-01-04T15:25:03;13.40;99.90
49829;DHT22;35723;51.194;5.112;2023-01-04T15:27:29;13.50;99.90
49829;DHT22;35723;51.194;5.112;2023-01-04T15:29:54;13.40;99.90
49829;DHT22;35723;51.194;5.112;2023-01-04T15:32:20;13.50;99.90
49829;DHT22;35723;51.194;5.112;2023-01-04T15:34:48;13.60;99.90
49829;DHT22;35723;51.194;5.112;2023-01-04T15:37:14;13.60;99.90
49829;DHT22;35723;51.194;5.112;2023-01-04T15:39:40;13.60;99.90
49829;DHT22;35723;51.194;5.112;2023-01-04T15:42:05;13.70;99.90
49829;DHT22;35723;51.194;5.112;2023-01-04T15:44:49;13.60;99.90
49829;DHT22;35723;51.194;5.112;2023-01-04T15:47:15;13.50;99.90
49829;DHT22;35723;51.194;5.112;2023-01-04T15:49:40;13.60;99.90
49829;DHT22;35723;51.194;5.112;2023-01-04T15:52:06;13.50;99.90
49829;DHT22;35723;51.194;5.112;2023-01-04T15:54:32;13.60;99.90
49829;DHT22;35723;51.194;5.112;2023-01-04T15:56:57;13.50;99.90
49829;DHT22;35723;51.194;5.112;2023-01-04T15:59:23;13.40;99.90
49829;DHT22;35723;51.194;5.112;2023-01-04T16:01:50;13.40;99.90
49829;DHT22;35723;51.194;5.112;2023-01-04T16:04:15;13.30;99.90
49829;DHT22;35723;51.194;5.112;2023-01-04T16:06:41;13.50;99.90
49829;DHT22;35723;51.194;5.112;2023-01-04T16:09:07;13.40;99.90
49829;DHT22;35723;51.194;5.112;2023-01-04T16:11:33;13.50;99.90
49829;DHT22;35723;51.194;5.112;2023-01-04T16:13:59;13.50;99.90
49829;DHT22;35723;51.194;5.112;2023-01-04T16:16:26;13.50;99.90
49829;DHT22;35723;51.194;5.112;2023-01-04T16:18:54;13.40;99.90
49829;DHT22;35723;51.194;5.112;2023-01-04T16:21:22;13.50;99.90
49829;DHT22;35723;51.194;5.112;2023-01-04T16:23:53;13.50;99.90
49829;DHT22;35723;51.194;5.112;2023-01-04T16:26:19;13.50;99.90
49829;DHT22;35723;51.194;5.112;2023-01-04T16:29:03;13.50;99.90
49829;DHT22;35723;51.194;5.112;2023-01-04T16:31:33;13.60;99.90
49829;DHT22;35723;51.194;5.112;2023-01-04T16:33:59;13.50;99.90
49829;DHT22;35723;51.194;5.112;2023-01-04T16:36:25;13.50;99.90
49829;DHT22;35723;51.194;5.112;2023-01-04T16:38:50;13.50;99.90
49829;DHT22;35723;51.194;5.112;2023-01-04T16:41:18;13.50;99.90
49829;DHT22;35723;51.194;5.112;2023-01-04T16:43:50;13.60;99.90
49829;DHT22;35723;51.194;5.112;2023-01-04T16:46:28;13.60;99.90
49829;DHT22;35723;51.194;5.112;2023-01-04T16:49:06;13.60;99.90
49829;DHT22;35723;51.194;5.112;2023-01-04T16:51:35;13.60;99.90
49829;DHT22;35723;51.194;5.112;2023-01-04T16:54:03;13.60;99.90
49829;DHT22;35723;51.194;5.112;2023-01-04T16:56:30;13.50;99.90
49829;DHT22;35723;51.194;5.112;2023-01-04T16:58:56;13.40;99.90
49829;DHT22;35723;51.194;5.112;2023-01-04T17:01:26;13.50;99.90
49829;DHT22;35723;51.194;5.112;2023-01-04T17:03:54;13.50;99.90
49829;DHT22;35723;51.194;5.112;2023-01-04T17:06:23;13.40;99.90
49829;DHT22;35723;51.194;5.112;2023-01-04T17:08:51;13.40;99.90
49829;DHT22;35723;51.194;5.112;2023-01-04T17:11:20;13.50;99.90
49829;DHT22;35723;51.194;5.112;2023-01-04T17:13:46;13.50;99.90
49829;DHT22;35723;51.194;5.112;2023-01-04T17:16:13;13.40;99.90
49829;DHT22;35723;51.194;5.112;2023-01-04T17:18:41;13.40;99.90
49829;DHT22;35723;51.194;5.112;2023-01-04T17:21:10;13.30;99.90
49829;DHT22;35723;51.194;5.112;2023-01-04T17:23:40;13.30;99.90
49829;DHT22;35723;51.194;5.112;2023-01-04T17:26:09;13.30;99.90
49829;DHT22;35723;51.194;5.112;2023-01-04T17:28:36;13.20;99.90
49829;DHT22;35723;51.194;5.112;2023-01-04T17:31:07;13.20;99.90
49829;DHT22;35723;51.194;5.112;2023-01-04T17:33:33;13.40;99.90
49829;DHT22;35723;51.194;5.112;2023-01-04T17:36:07;13.40;99.90
49829;DHT22;35723;51.194;5.112;2023-01-04T17:38:33;13.40;99.90
49829;DHT22;35723;51.194;5.112;2023-01-04T17:41:26;13.30;99.90
49829;DHT22;35723;51.194;5.112;2023-01-04T17:43:55;13.40;99.90
49829;DHT22;35723;51.194;5.112;2023-01-04T17:46:22;13.40;99.90
49829;DHT22;35723;51.194;5.112;2023-01-04T17:48:48;13.40;99.90
49829;DHT22;35723;51.194;5.112;2023-01-04T17:51:17;13.30;99.90
49829;DHT22;35723;51.194;5.112;2023-01-04T17:53:43;13.40;99.90
49829;DHT22;35723;51.194;5.112;2023-01-04T17:56:18;13.30;99.90
49829;DHT22;35723;51.194;5.112;2023-01-04T17:58:44;13.30;99.90
49829;DHT22;35723;51.194;5.112;2023-01-04T18:01:13;13.20;99.90
49829;DHT22;35723;51.194;5.112;2023-01-04T18:03:43;13.20;99.90
49829;DHT22;35723;51.194;5.112;2023-01-04T18:06:11;13.10;99.90